Terminal Aerodrome Forecast
Issued by NWS Wilmington, OH

Current Version | Previous Version | Text Only | Print | Product List | Glossary Off
Versions: 1 2 3 4 5 6 7 8 9 10 11 12 13 14 15 16 17 18 19 20

000
FTUS41 KILN 170900 AAA
TAFCMH
TAF AMD
KCMH 170925Z 1709/1806 24003KT P6SM OVC070
     FM171000 22003KT 5SM BR OVC070
      TEMPO 1711/1712 2SM BR
     FM171300 17004KT P6SM SCT060 OVC080
     FM172100 17006KT P6SM VCSH BKN050=

USA.gov is the U.S. government's official web portal to all federal, state and local government web resources and services.